createdAt,value
2022-10-05T00:28:00.400Z,1.4
2022-10-05T00:58:03.297Z,1.2
2022-10-05T01:28:04.983Z,1.1
2022-10-05T01:58:05.701Z,1.2
2022-10-05T02:28:06.134Z,1
2022-10-05T02:58:08.486Z,1.1
2022-10-05T03:28:09.175Z,1.2
2022-10-05T03:58:10.262Z,1.7
2022-10-05T04:28:13.844Z,1.9
2022-10-05T04:58:14.444Z,2.1
2022-10-05T05:28:18.718Z,1.8
2022-10-05T05:58:15.622Z,1.4
2022-10-05T06:28:17.057Z,1
2022-10-05T06:58:26.237Z,1
2022-10-05T07:28:20.628Z,1.1
2022-10-05T07:58:23.357Z,1.4
2022-10-05T08:28:24.799Z,1.5
2022-10-05T08:58:43.450Z,1.9
2022-10-05T09:28:34.407Z,1.6
2022-10-05T09:58:41.085Z,1.4
2022-10-05T10:29:05.019Z,1.4
2022-10-05T10:58:54.553Z,1.3
2022-10-05T11:28:53.310Z,1.4
2022-10-05T11:58:45.735Z,2.3
2022-10-05T12:28:45.137Z,2
2022-10-05T12:58:45.931Z,2
2022-10-05T13:28:47.905Z,1.7
2022-10-05T13:58:46.332Z,1.6
2022-10-05T14:28:45.702Z,1.5
2022-10-05T14:58:59.365Z,1.5
2022-10-05T15:28:55.961Z,1.4
2022-10-05T15:59:00.250Z,1.5
2022-10-05T16:28:58.746Z,1.6
2022-10-05T16:59:04.719Z,1.8
2022-10-05T17:29:15.448Z,1.8
2022-10-05T17:59:05.127Z,1.7
2022-10-05T18:29:13.695Z,2.5
2022-10-05T18:59:10.475Z,1.4
2022-10-05T19:29:10.944Z,0.9
2022-10-05T19:59:14.666Z,0.7
2022-10-05T20:29:12.094Z,0.8
2022-10-05T20:59:10.251Z,0.7
2022-10-05T21:29:12.457Z,0.7
2022-10-05T21:59:14.369Z,0.7
2022-10-05T22:29:13.900Z,1.1
2022-10-05T22:59:15.063Z,0.7
2022-10-05T23:29:18.569Z,1
2022-10-05T23:59:17.423Z,1.2
